Nicolò De Angelis

Chefscout - Spezia
25 Nov 2027
Donnerstag
Verarbeitung

Persönlichkeit

Anpassungsfähigkeit (1) Ehrgeiz (19) Kontroverse (1) Loyalität (18) Druck (6) Professionalität (4) Fairness (13) Temperament (8)

Profil

Trainerstil Demokratisch
Lizenz Kontinentale Pro
Entschlossenheit 10
Menschenführung 5
Motivation 12
Disziplin 8
Arbeitszufriedenheit
100%
Ermüdung
0%
Rolle Chefscout
Gehalt 59.6K p/W
Vertrag 14.03.2030

Leistung

Verhalten Gut
Trainingseffektivität
31%
Spielerentwicklung
55%
Verletzungsprävention
25%
Taktische Umsetzung
20%

Letzte Ereignisse

Spieler begutachtet jetzt
Nahm an einer Scouting-Besprechung teil jetzt
Nahm an einer Scouting-Besprechung teil jetzt
Empfahl ein Transferziel jetzt
Empfahl ein Transferziel jetzt
Empfahl ein Transferziel jetzt
Empfahl ein Transferziel jetzt
Spieler begutachtet 7T her

Aktuell beobachtet

209
Spieler Verein Status Fähigkeit Vertrauen Beobachtet Zuletzt beobachtet Letzte Stimme
Kieran Morgan Queens Park Rangers Aktiv 125 / 134 40% 2 24.11.2027 -
Rufai Mohammed IF Elfsborg Aktiv 115 / 112 40% 1 24.11.2027 -
Hervin Goyes Deportivo Pasto Aktiv 106 / 121 40% 4 23.11.2027 -
Mattia Puzone Siracusa Aktiv 99 / 110 40% 2 23.11.2027 -
Harbor Miller LA Galaxy Aktiv 94 / 96 40% 2 23.11.2027 -
Sam Curtis Cambridge United Aktiv 102 / 105 40% 2 22.11.2027 -
Narcis Ilaş CFR Cluj Aktiv 113 / 113 40% 2 22.11.2027 -
Tobias Slotsager Casertana Aktiv 115 / 130 40% 2 22.11.2027 -
Diego Vargas San Marcos de Arica Aktiv 95 / 94 40% 2 21.11.2027 -
Matteo Milan Cheltenham Town Aktiv 91 / 89 40% 2 21.11.2027 -
Hosea Michael Remo Stars Aktiv 96 / 104 40% 1 21.11.2027 -
Celías Ingenthron Vélez Aktiv 114 / 129 40% 2 18.11.2027 -
Niccolò Fortini Fiorentina Aktiv 128 / 147 40% 2 18.11.2027 -
Gift Udoh Ikorodu City Aktiv 94 / 79 40% 5 16.11.2027 -
Darryl Bakola Padova Aktiv 111 / 118 40% 4 15.11.2027 -
Jofre Torrents Ajax Aktiv 126 / 142 40% 3 15.11.2027 -
Emiliano Bértoli Patronato Aktiv 95 / 91 40% 1 14.11.2027 -
Tyson Pearce St. Louis CITY SC Aktiv 98 / 90 40% 4 12.11.2027 -
Lennon Miller Udinese Aktiv 142 / 148 40% 2 12.11.2027 -
Tiago Gordillo San Miguel Aktiv 87 / 95 40% 2 11.11.2027 -
Samuel Posada Leones Aktiv 91 / 89 40% 5 11.11.2027 -
Yunus Emre Konak Brentford Aktiv 135 / 131 40% 2 10.11.2027 -
Matteo Palma Udinese Aktiv 119 / 128 40% 2 10.11.2027 -
Sascha Britschgi Padova Aktiv 120 / 122 40% 3 09.11.2027 -
Fillip Jenssen Riise Stabaek Aktiv 90 / 103 40% 5 09.11.2027 -
Lucas Barrientos Los Andes Aktiv 102 / 98 40% 1 09.11.2027 -
Colin Guske Orlando City Aktiv 96 / 108 40% 1 08.11.2027 -
Nazareno Roselli Defensa y Justicia Aktiv 114 / 115 40% 1 08.11.2027 -
Honest Ahanor Atalanta Aktiv 134 / 142 40% 2 07.11.2027 -
Mauro Carrizo Atlético Tucumán Aktiv 103 / 116 40% 2 05.11.2027 -
Somtochuwku Ezenabo Kwara United Aktiv 80 / 93 40% 1 05.11.2027 -
Mikkel Hope Haugesund Aktiv 94 / 119 40% 2 04.11.2027 -
Alessandro Capello Arezzo Aktiv 116 / 116 42% 1 / 1m 03.11.2027 -
João Costa Arezzo Aktiv 85 / 88 30% 1 / 1m 03.11.2027 -
Mattia Damiani Arezzo Aktiv 111 / 114 30% 1 / 1m 03.11.2027 -
Tiago Parente Benfica Aktiv 109 / 113 40% 2 02.11.2027 -
Alejandro Almaraz Nueva Chicago Aktiv 110 / 110 40% 2 02.11.2027 -
Frankie Westfield Philadelphia Union Aktiv 108 / 116 40% 1 02.11.2027 -
Lucas Camejo River Plate Aktiv 91 / 97 40% 1 01.11.2027 -
Joel Ezra Enyimba Aktiv 91 / 112 40% 1 31.10.2027 -
Matías Gómez Granada Aktiv 124 / 134 40% 1 29.10.2027 -
Axel Tape Bayer Leverkusen Aktiv 126 / 126 40% 2 26.10.2027 -
Juan Giménez Celta Aktiv 121 / 127 40% 1 26.10.2027 -
Vitor Reis Manchester City Aktiv 140 / 134 40% 1 23.10.2027 -
Kwesi Sorotu Badori Berekum Chelsea Aktiv 86 / 118 40% 1 22.10.2027 -
Víctor Reyes Deportes Tolima Aktiv 89 / 106 40% 1 20.10.2027 -
Camilo Rey Domenech Boca Juniors Aktiv 119 / 130 40% 1 20.10.2027 -
Dominik Chong Qui Atlanta United FC Aktiv 93 / 92 40% 2 19.10.2027 -
Dmitry Pestryakov Dinamo Moscow Aktiv 112 / 112 40% 2 18.10.2027 -
Tobias Moi Bodo/Glimt Aktiv 102 / 97 40% 1 18.10.2027 -
Theodor Lundbergh Malmo FF Aktiv 96 / 97 40% 2 14.10.2027 -
David Odogu AC Milan Aktiv 135 / 130 40% 1 14.10.2027 -
Mohamed Bolivar Barranquilla Aktiv 84 / 103 40% 1 14.10.2027 -
Chris Rigg Sunderland Aktiv 131 / 147 40% 1 13.10.2027 -
Ignacio Fernández Boston River Aktiv 88 / 108 40% 2 12.10.2027 -
Uche Jaguar Kwara United Aktiv 88 / 91 40% 1 12.10.2027 -
José Correa Deportivo Tachira Aktiv 89 / 101 40% 1 12.10.2027 -
Kelechi Onwe Ikorodu City Aktiv 94 / 90 40% 1 11.10.2027 -
Christ Inao Oulaï Fiorentina Aktiv 140 / 153 40% 1 11.10.2027 -
Chibueze Oputa Rangers International Aktiv 83 / 107 40% 1 09.10.2027 -
Álvaro Navoni Tigre Aktiv 89 / 93 40% 1 09.10.2027 -
Julián Bazán Philadelphia Union Aktiv 117 / 122 40% 1 08.10.2027 -
Agustín Obregón River Plate Aktiv 106 / 111 40% 1 08.10.2027 -
Daniel Gomez Valledupar Aktiv 92 / 86 40% 1 23.08.2027 -
Martin Georgiev Aris Thessaloniki Verhandlung 117 / 130 40% 1 23.08.2027 -
Zane Albarus Cambridge United Aktiv 96 / 113 40% 2 09.08.2027 -
Veljko Milosavljević Aston Villa Aktiv 143 / 151 40% 1 09.08.2027 -
Riley Owen Trento Aktiv 105 / 104 40% 1 05.07.2027 -
Bernardo Lima Porto Aktiv 104 / 113 40% 1 05.07.2027 -
Andrea Bertoncini Carpi Aktiv 97 / 91 40% 1 05.07.2027 -
Dion Beljo Standard Liege Verhandlung 131 / 132 66% 1 01.06.2027 Befürworten
Percy Jali Free State Stars Aktiv 102 / 111 40% 1 06.02.2027 -
Matvey Kislyak CSKA Moscow Aktiv 141 / 153 40% 1 06.02.2027 -
Raymond Agyemang Aduana Stars Aktiv 73 / 92 40% 1 04.02.2027 -
Pietro Reggiori Pro Patria Aktiv 97 / 100 40% 1 04.02.2027 -
Ibrahim Maza Bayer Leverkusen Aktiv 150 / 153 40% 1 03.02.2027 -
Tsvetoslav Marinov Spartak 1918 Aktiv 95 / 85 40% 1 02.02.2027 -
Gonçalo Oliveira Benfica Aktiv 108 / 112 40% 1 02.02.2027 -
Rivaldo Grobler Free State Stars Aktiv 98 / 106 40% 1 01.02.2027 -
Josh King Chelsea Aktiv 139 / 141 40% 1 01.02.2027 -
Eddy Kouadio Crotone Aktiv 101 / 100 40% 1 18.01.2027 -
Matteo Rover Reggiana Aktiv 125 / 115 40% 2 11.01.2027 -
Marcelo Allende Mamelodi Sundowns Aktiv 141 / 126 40% 1 11.01.2027 -
Antoine Bernede Hellas Verona Aktiv 124 / 133 40% 1 11.01.2027 -
Konstantin Tyukavin Inter Verhandlung 132 / 133 66% 1 01.01.2027 Befürworten
Andreas Trimmel Red Bull Salzburg Aktiv 131 / 131 60% 1 01.01.2027 Befürworten
Amar Memić Casa Pia Verhandlung 127 / 128 62% 1 01.01.2027 Befürworten
Tijjani Noslin Lazio Aktiv 142 / 145 40% 3 30.12.2026 -
Bongani Mothiba SuperSport United Aktiv 73 / 80 40% 2 30.12.2026 -
Tamerlan Musaev CSKA Moscow Aktiv 126 / 130 40% 1 30.12.2026 -
Papa Ndiaga Yade Oleksandriya Aktiv 101 / 110 40% 1 29.12.2026 -
José Martínes CSKA 1948 Aktiv 110 / 94 40% 1 28.12.2026 -
Jacopo Desogus AlbinoLeffe Aktiv 108 / 105 40% 1 28.12.2026 -
Danylo Kravchuk LNZ Aktiv 90 / 93 40% 1 28.12.2026 -
Jens Odgaard Bologna Aktiv 132 / 144 40% 9 27.12.2026 Beobachten
Konan N'Dri Lecce Aktiv 131 / 120 40% 2 25.12.2026 -
David Romero Parma Aktiv 124 / 136 40% 2 25.12.2026 -
Lucas Da Cunha Como Aktiv 142 / 140 40% 1 25.12.2026 -
Nicolò Cambiaghi Bologna Aktiv 147 / 142 40% 1 24.12.2026 -
Lorenzo Ignacchiti Empoli Aktiv 113 / 121 40% 1 24.12.2026 -
Evidence Makgopa Orlando Pirates Aktiv 105 / 123 40% 3 23.12.2026 -
Lorenzo Colombo Genoa Aktiv 137 / 136 40% 4 21.12.2026 -
Ruben van Bommel Ferencvaros Aktiv 130 / 142 40% 3 20.12.2026 -
Mduduzi Shabalala Kaizer Chiefs Aktiv 117 / 119 40% 2 20.12.2026 -
Emanuele Schimmenti Potenza Aktiv 116 / 117 40% 1 20.12.2026 -
Kenan Dervišagić Floriana Aktiv 108 / 102 40% 1 20.12.2026 -
Romano Schmid Frosinone Aktiv 145 / 142 40% 3 16.12.2026 -
Nadir Zortea Bologna Aktiv 132 / 130 40% 2 16.12.2026 -
Rômulo RB Leipzig Aktiv 139 / 141 40% 2 16.12.2026 -
Nicolás Cordero Aldosivi Aktiv 126 / 125 40% 2 14.12.2026 -
Ammar Ramadan DAC Dunajska Streda Aktiv 127 / 113 40% 2 14.12.2026 -
Alessio Zerbin Frosinone Aktiv 135 / 122 40% 3 14.12.2026 -
Tommaso Pobega Bologna Aktiv 142 / 143 40% 1 13.12.2026 -
Oswin Appollis Orlando Pirates Aktiv 112 / 119 40% 1 10.12.2026 -
Cristian Shpendi Cesena Aktiv 131 / 139 40% 1 10.12.2026 -
Amin Sarr Hellas Verona Aktiv 125 / 131 40% 2 05.12.2026 -
Raoul Bellanova Atalanta Aktiv 147 / 152 40% 2 04.12.2026 -
Eren Aydın Zira Aktiv 115 / 115 40% 2 04.12.2026 -
Milán Tóth Vasas Aktiv 97 / 113 40% 1 02.12.2026 -
Camillo Tavernelli Arezzo Aktiv 122 / 108 40% 1 02.12.2026 -
Jacques Siwe Rubin Aktiv 124 / 101 40% 1 01.12.2026 -
Etiosa Ighodaro Kaizer Chiefs Aktiv 118 / 120 40% 1 01.12.2026 -
Willem Geubbels Lecce Aktiv 133 / 119 40% 1 01.12.2026 -
Bamba Dieng Crvena Zvezda Aktiv 125 / 135 40% 3 29.11.2026 -
Kwame Opoku Asante Kotoko Aktiv 104 / 99 40% 1 29.11.2026 -
Youssoufa Moukoko FC Copenhagen Aktiv 119 / 129 40% 2 28.11.2026 -
Stiven Shpendi Empoli Aktiv 117 / 124 40% 1 28.11.2026 -
Juan Manuel Boselli Krasnodar Aktiv 133 / 106 40% 2 27.11.2026 -
Razvan Balasa Crvena Zvezda Aktiv 154 / 147 40% 1 27.11.2026 -
Bénie Traoré New York City Aktiv 120 / 122 40% 4 26.11.2026 -
Sead Hakšabanović Malmo FF Aktiv 134 / 133 40% 3 26.11.2026 -
Gianluca Contini Siracusa Aktiv 96 / 107 40% 1 25.11.2026 -
Berna CSKA 1948 Aktiv 113 / 112 40% 1 25.11.2026 -
Bernat Guiu Virtus Entella Aktiv 118 / 107 40% 1 25.11.2026 -
Luciano Gondou CSKA Moscow Aktiv 128 / 135 40% 1 24.11.2026 -
Emanuele Pecorino Catanzaro Aktiv 102 / 100 40% 1 24.11.2026 -
Petar Stanić Ludogorets Aktiv 126 / 119 40% 2 22.11.2026 -
Santiago Pierotti Lecce Aktiv 124 / 130 40% 2 22.11.2026 -
Tshepang Moremi Orlando Pirates Aktiv 122 / 113 40% 1 22.11.2026 -
Juan Miranda Bologna Aktiv 148 / 130 40% 1 22.11.2026 -
Diego García Malmo FF Aktiv 118 / 110 40% 1 22.11.2026 -
Fiete Arp OB Aktiv 119 / 137 40% 2 20.11.2026 -
Kelvin Yeboah Minnesota United FC Aktiv 127 / 131 40% 3 20.11.2026 -
Pablo Rodríguez Lech Aktiv 136 / 119 40% 1 17.11.2026 -
David Miculescu FCSB Aktiv 120 / 103 40% 2 16.11.2026 -
Everton Bala Levski Aktiv 139 / 111 40% 2 16.11.2026 -
Mandla Mahlangu Ajax Cape Town Aktiv 116 / 91 40% 4 15.11.2026 -
Sota Kitano Luzern Aktiv 126 / 117 40% 1 14.11.2026 -
Ibrahim Adel FC Nordsjaelland Aktiv 130 / 126 40% 1 14.11.2026 -
Kévin Denkey FC Cincinnati Aktiv 123 / 125 40% 1 13.11.2026 -
Rilind Nivokazi Sion Aktiv 124 / 110 40% 1 10.11.2026 -
Ramiro Ruiz Rodríguez Atlético Tucumán Aktiv 119 / 114 40% 1 10.11.2026 -
Themba Ngcobo SuperSport United Aktiv 129 / 128 40% 3 09.11.2026 -
Max Fenger IFK Goteborg Aktiv 129 / 113 40% 2 07.11.2026 -
Emanuele Valeri Parma Aktiv 127 / 139 40% 1 07.11.2026 -
Josh Doig Sassuolo Aktiv 133 / 139 40% 1 05.11.2026 -
Leonardo Campana New England Revolution Aktiv 132 / 121 40% 1 03.11.2026 -
Peter Christiansen Viking Aktiv 112 / 110 40% 1 03.11.2026 -
Giacomo Raspadori Atalanta Aktiv 150 / 134 40% 3 02.11.2026 -
Christian Krasnodar Aktiv 136 / 135 40% 2 31.10.2026 -
Agustín Módica Gimnasia y Esgrima Aktiv 113 / 113 40% 1 28.10.2026 -
Alexander Aravena Portland Timbers Aktiv 122 / 123 40% 2 27.10.2026 -
Aleksa Terzić Frosinone Aktiv 133 / 121 40% 1 26.10.2026 -
Georginio Rutter Brighton Aktiv 146 / 151 40% 3 23.10.2026 -
Tomás González Piast Aktiv 106 / 131 40% 1 23.10.2026 -
Ilyas Ansah Hull City Aktiv 132 / 131 40% 1 22.10.2026 -
Jesus Ferreira Seattle Sounders Aktiv 126 / 123 40% 1 19.10.2026 -
Xavi Simons Tottenham Aktiv 158 / 164 40% 1 16.10.2026 -
Andri Guðjohnsen Blackburn Rovers Aktiv 125 / 121 40% 1 16.10.2026 -
Luis Vázquez Birmingham Aktiv 132 / 127 40% 1 15.10.2026 -
Adnan Courtois KV Oostende Aktiv 139 / 125 40% 2 14.10.2026 -
Mattia Felici Cagliari Aktiv 130 / 125 40% 2 11.10.2026 -
Joe Gelhardt Hull City Aktiv 123 / 128 40% 2 11.10.2026 -
Tommy Conway Middlesbrough Aktiv 124 / 122 40% 1 11.10.2026 -
Rômulo Tigres Aktiv 129 / 121 40% 1 10.10.2026 -
Max Bird Birmingham Aktiv 132 / 127 40% 1 10.10.2026 -
Telasco Segovia Inter Miami CF Aktiv 137 / 126 40% 1 10.10.2026 -
Rico Lewis Manchester City Aktiv 154 / 149 40% 1 09.10.2026 -
Dávid Strelec Middlesbrough Aktiv 134 / 146 40% 1 09.10.2026 -
Agustín Paz Progreso Aktiv 115 / 117 40% 2 05.10.2026 -
August Priske Birmingham Aktiv 127 / 122 40% 1 05.10.2026 -
Rafael Navarro St. Louis CITY SC Aktiv 119 / 126 40% 2 02.10.2026 -
Luca Martínez Dupuy Godoy Cruz Aktiv 119 / 128 40% 1 02.10.2026 -
Cheikh Sabaly Vancouver Whitecaps Aktiv 130 / 126 40% 2 29.09.2026 -
Richard Koné Queens Park Rangers Aktiv 116 / 127 40% 1 27.09.2026 -
Fabricio Rojas Gimnasia y Tiro Aktiv 116 / 111 40% 1 27.09.2026 -
Lorent Tolaj Plymouth Argyle Aktiv 112 / 127 40% 2 26.09.2026 -
Dom Ballard Leyton Orient Aktiv 122 / 128 40% 1 26.09.2026 -
Dejan Joveljić Seattle Sounders Aktiv 128 / 126 40% 3 24.09.2026 -
Alexander Díaz Deportivo Riestra Aktiv 116 / 109 40% 1 24.09.2026 -
Agustín Anello Philadelphia Union Aktiv 130 / 116 40% 1 24.09.2026 -
Facundo Mura Inter Miami CF Aktiv 130 / 128 40% 2 23.09.2026 -
Lukas Nmecha Leeds United Aktiv 127 / 122 40% 1 23.09.2026 -
Alexis Cuello San Lorenzo Aktiv 118 / 126 40% 1 20.09.2026 -
Dwight McNeil Crystal Palace Aktiv 132 / 144 40% 1 18.09.2026 -
Tyrese Campbell Sheffield United Aktiv 118 / 120 40% 1 18.09.2026 -
Louis Munteanu DC United Aktiv 129 / 115 40% 2 17.09.2026 -
Matías Fernández Independiente Rivadavia Aktiv 125 / 115 40% 1 17.09.2026 -
Wessam Abou Ali Columbus Crew Aktiv 137 / 132 40% 1 15.09.2026 -
Antony Portland Timbers Aktiv 130 / 123 40% 1 15.09.2026 -
Mateo Zuleta Once Caldas Aktiv 124 / 127 40% 1 15.09.2026 -
Misael Sosa Godoy Cruz Aktiv 117 / 115 40% 1 12.09.2026 -
Rayan Bournemouth Aktiv 129 / 143 40% 1 10.09.2026 -
João Klauss LA Galaxy Aktiv 129 / 120 40% 1 17.08.2026 -
El Hadji Malick Diouf Brentford Aktiv 138 / 145 40% 1 07.08.2026 -
Aaron Hickey Brentford Aktiv 141 / 148 40% 1 07.08.2026 -
Cody Gakpo Liverpool Aktiv 156 / 159 40% 1 07.08.2026 -
Nahuel Molina AS Roma Aktiv 150 / 145 40% 1 02.08.2026 -
Sergio Reguilón Inter Miami CF Aktiv 141 / 135 40% 1 02.08.2026 -